Time;durP1;ratioP1;P1;durP2;ratioP2;P2;SDS_P1;SDS_P2;PMS_P1;PMS_P2;Temp;Humidity;BMP_temperature;BMP_pressure;BME280_temperature;BME280_humidity;BME280_pressure;Samples;Min_cycle;Max_cycle;Signal;HPM_P1;HPM_P2
2023/03/21 00:00:38;;;;;;;13.07;5.90;;;10.70;43.70;;;;;;5055650;28;20932;-71
2023/03/21 00:03:03;;;;;;;11.77;6.00;;;10.90;42.90;;;;;;5056939;28;20412;-71
2023/03/21 00:05:29;;;;;;;15.27;6.88;;;11.10;41.30;;;;;;5057726;28;20948;-72
2023/03/21 00:07:55;;;;;;;17.27;6.70;;;11.00;42.00;;;;;;5057447;28;20401;-73
2023/03/21 00:10:21;;;;;;;17.90;6.90;;;10.80;43.50;;;;;;5057483;28;20405;-72
2023/03/21 00:12:49;;;;;;;17.40;7.47;;;10.90;43.70;;;;;;5057291;28;20864;-71
2023/03/21 00:15:17;;;;;;;16.23;6.80;;;11.10;41.90;;;;;;5056892;28;20417;-72
2023/03/21 00:17:43;;;;;;;16.27;7.10;;;11.10;41.80;;;;;;5056850;28;20393;-72
2023/03/21 00:20:14;;;;;;;17.10;6.50;;;10.90;43.40;;;;;;5057176;28;20468;-72
2023/03/21 00:22:40;;;;;;;14.80;7.32;;;10.90;43.00;;;;;;5053448;28;20476;-73
2023/03/21 00:25:07;;;;;;;20.38;7.65;;;10.90;43.30;;;;;;5054005;28;20385;-72
2023/03/21 00:27:33;;;;;;;19.38;7.00;;;10.80;43.90;;;;;;5053422;28;20401;-71
2023/03/21 00:29:59;;;;;;;20.98;7.05;;;11.00;43.50;;;;;;5053516;28;20385;-72
2023/03/21 00:32:25;;;;;;;19.38;6.93;;;10.90;43.30;;;;;;5053402;28;20385;-71
2023/03/21 00:34:51;;;;;;;17.02;6.70;;;11.00;43.10;;;;;;5053685;28;20730;-72
2023/03/21 00:37:17;;;;;;;15.52;7.15;;;11.00;43.10;;;;;;5054570;28;20381;-71
2023/03/21 00:39:47;;;;;;;20.58;6.80;;;10.90;43.40;;;;;;5055120;28;20377;-72
2023/03/21 00:42:12;;;;;;;18.33;6.90;;;10.90;44.30;;;;;;5053778;28;20417;-71
2023/03/21 00:44:39;;;;;;;18.38;8.00;;;10.80;44.30;;;;;;5051766;28;20483;-70
2023/03/21 00:47:05;;;;;;;19.10;7.50;;;11.00;43.40;;;;;;5053043;28;20504;-70
2023/03/21 00:49:32;;;;;;;17.10;7.80;;;10.90;44.20;;;;;;5052821;28;20407;-71
2023/03/21 00:52:02;;;;;;;17.15;7.38;;;11.00;43.50;;;;;;5052956;28;20378;-71
2023/03/21 00:54:27;;;;;;;17.02;7.32;;;11.00;43.50;;;;;;5052803;28;20793;-72
2023/03/21 00:56:53;;;;;;;24.47;8.10;;;11.00;44.20;;;;;;5052812;28;20381;-72
2023/03/21 00:59:19;;;;;;;17.53;7.00;;;11.00;44.40;;;;;;5053154;28;20397;-71
2023/03/21 01:01:45;;;;;;;21.20;8.32;;;10.90;45.20;;;;;;5052547;28;20381;-73
2023/03/21 01:04:13;;;;;;;18.00;7.20;;;10.90;44.60;;;;;;5052939;28;20396;-73
2023/03/21 01:06:41;;;;;;;17.88;7.00;;;10.90;45.10;;;;;;5051713;28;20462;-72
2023/03/21 01:09:12;;;;;;;18.25;7.32;;;10.80;45.90;;;;;;5052716;28;20770;-71
2023/03/21 01:11:38;;;;;;;22.92;8.40;;;10.90;45.40;;;;;;5052432;28;20457;-71
2023/03/21 01:14:04;;;;;;;19.27;6.85;;;10.90;46.10;;;;;;5052808;28;20384;-71
2023/03/21 01:16:30;;;;;;;21.30;7.63;;;10.90;45.90;;;;;;5052501;28;20390;-71
2023/03/21 01:18:56;;;;;;;17.58;7.53;;;10.90;45.70;;;;;;5052675;28;20385;-72
2023/03/21 01:21:22;;;;;;;20.13;8.20;;;10.90;46.40;;;;;;5052031;28;20393;-71
2023/03/21 01:23:47;;;;;;;20.80;7.97;;;11.00;45.90;;;;;;5052159;28;20385;-72
2023/03/21 01:26:14;;;;;;;17.37;8.10;;;10.90;47.10;;;;;;5052411;28;20389;-72
2023/03/21 01:28:41;;;;;;;20.87;8.83;;;10.80;47.50;;;;;;5052083;28;20409;-71
2023/03/21 01:31:07;;;;;;;19.13;8.07;;;11.10;46.00;;;;;;5051908;28;20393;-71
2023/03/21 01:33:33;;;;;;;21.45;8.57;;;11.30;45.10;;;;;;5050812;28;20390;-70
2023/03/21 01:36:00;;;;;;;24.37;8.70;;;11.20;45.60;;;;;;5052067;28;20381;-72
2023/03/21 01:38:26;;;;;;;22.13;8.93;;;11.30;44.60;;;;;;5051918;28;20397;-71
2023/03/21 01:40:51;;;;;;;25.70;8.85;;;11.30;44.50;;;;;;5051826;28;20396;-71
2023/03/21 01:43:25;;;;;;;25.95;9.10;;;11.30;45.20;;;;;;5052178;28;20401;-71
2023/03/21 01:46:08;;;;;;;22.75;9.00;;;11.20;45.50;;;;;;5051712;28;20866;-71
2023/03/21 01:48:38;;;;;;;21.58;9.10;;;11.20;45.70;;;;;;5051619;28;20404;-72
2023/03/21 01:51:04;;;;;;;22.70;8.60;;;11.10;46.70;;;;;;5051448;28;20382;-72
2023/03/21 01:53:34;;;;;;;26.58;10.10;;;11.30;45.80;;;;;;5051519;28;20392;-72
2023/03/21 01:56:05;;;;;;;24.57;9.97;;;11.40;46.00;;;;;;5050401;28;20956;-72
2023/03/21 01:58:32;;;;;;;21.92;9.90;;;11.50;44.90;;;;;;5051528;28;20393;-71
2023/03/21 02:00:58;;;;;;;21.20;10.00;;;11.60;45.10;;;;;;5051281;28;20397;-72
2023/03/21 02:03:28;;;;;;;25.88;9.57;;;11.50;45.60;;;;;;5051362;28;20862;-71
2023/03/21 02:06:03;;;;;;;23.05;9.95;;;11.60;45.40;;;;;;5051519;28;20721;-71
2023/03/21 02:08:30;;;;;;;25.08;10.45;;;11.50;45.90;;;;;;5051407;28;20416;-71
2023/03/21 02:10:56;;;;;;;24.80;9.85;;;11.50;47.20;;;;;;5051060;28;20444;-72
2023/03/21 02:13:22;;;;;;;23.08;10.40;;;11.30;48.70;;;;;;5050077;28;20393;-71
2023/03/21 02:16:17;;;;;;;17.70;9.60;;;11.30;49.30;;;;;;5051396;28;20390;-71
2023/03/21 02:18:46;;;;;;;22.70;10.15;;;11.30;50.00;;;;;;5051180;28;20390;-72
2023/03/21 02:21:42;;;;;;;22.93;9.30;;;11.30;49.00;;;;;;5050884;28;20415;-71
2023/03/21 02:24:20;;;;;;;26.23;10.57;;;11.20;50.00;;;;;;5051027;28;20384;-70
2023/03/21 02:27:20;;;;;;;27.42;10.43;;;11.10;51.10;;;;;;5051003;28;20435;-70
2023/03/21 02:30:06;;;;;;;26.23;10.20;;;11.20;50.90;;;;;;5050829;28;20389;-71
2023/03/21 02:32:50;;;;;;;21.65;10.68;;;11.10;52.20;;;;;;5050686;28;20374;-71
2023/03/21 02:36:12;;;;;;;24.13;10.13;;;11.00;53.10;;;;;;5050969;28;20758;-71
2023/03/21 02:38:51;;;;;;;25.35;10.93;;;10.80;54.70;;;;;;5028520;28;20456;-71
2023/03/21 02:41:17;;;;;;;25.05;9.82;;;10.90;54.50;;;;;;5028508;28;20387;-71
2023/03/21 02:44:06;;;;;;;24.23;10.07;;;11.00;54.20;;;;;;5043656;28;20897;-72
2023/03/21 02:46:56;;;;;;;25.90;10.30;;;10.90;54.90;;;;;;5050259;28;20413;-71
2023/03/21 02:49:46;;;;;;;26.52;10.18;;;10.90;55.50;;;;;;5050897;28;20401;-72
2023/03/21 02:52:17;;;;;;;26.30;10.02;;;10.90;55.60;;;;;;5050861;28;20374;-71
2023/03/21 02:54:43;;;;;;;24.40;9.85;;;10.90;56.30;;;;;;5050767;28;20385;-72
2023/03/21 02:57:09;;;;;;;22.80;10.45;;;10.80;56.20;;;;;;5050811;28;20476;-70
2023/03/21 02:59:36;;;;;;;23.48;10.07;;;10.90;57.10;;;;;;5050450;28;20417;-71
2023/03/21 03:02:02;;;;;;;22.50;9.75;;;11.00;55.40;;;;;;5050526;28;20389;-71
2023/03/21 03:04:28;;;;;;;25.60;11.25;;;10.90;56.00;;;;;;5050419;28;20393;-71
2023/03/21 03:07:11;;;;;;;22.42;9.70;;;10.80;57.00;;;;;;5050367;28;20382;-71
2023/03/21 03:10:07;;;;;;;24.30;10.07;;;10.80;57.00;;;;;;5049870;28;20409;-70
2023/03/21 03:13:03;;;;;;;26.33;10.13;;;10.80;56.10;;;;;;5049994;28;20377;-72
2023/03/21 03:15:50;;;;;;;23.10;9.23;;;10.80;56.40;;;;;;5050385;28;21004;-71
2023/03/21 03:18:34;;;;;;;20.67;9.50;;;10.90;56.10;;;;;;5050313;28;20413;-72
2023/03/21 03:21:27;;;;;;;22.02;10.40;;;10.80;55.80;;;;;;5050004;28;20397;-72
2023/03/21 03:24:01;;;;;;;22.02;9.32;;;10.70;56.30;;;;;;5050210;28;20381;-73
2023/03/21 03:26:53;;;;;;;21.33;9.27;;;10.70;56.90;;;;;;5048870;28;20400;-71
2023/03/21 03:29:20;;;;;;;22.37;8.90;;;10.70;56.20;;;;;;5050202;28;20752;-72
2023/03/21 03:32:16;;;;;;;24.97;10.13;;;10.60;56.70;;;;;;5049852;28;20742;-72
2023/03/21 03:34:48;;;;;;;32.25;10.40;;;10.50;58.00;;;;;;5041944;28;20882;-71
2023/03/21 03:37:17;;;;;;;24.00;9.70;;;10.50;58.00;;;;;;5051357;28;20460;-72
2023/03/21 03:39:52;;;;;;;22.00;9.83;;;10.50;57.80;;;;;;5052260;28;20457;-71
2023/03/21 03:42:30;;;;;;;24.67;9.32;;;10.50;58.40;;;;;;5051954;28;20929;-71
2023/03/21 03:44:57;;;;;;;20.50;9.23;;;10.40;59.30;;;;;;5051965;28;20893;-72
2023/03/21 03:47:57;;;;;;;25.63;10.25;;;10.30;60.50;;;;;;5050600;28;20400;-70
2023/03/21 03:50:35;;;;;;;22.33;9.40;;;10.30;60.30;;;;;;5049933;28;20759;-71
2023/03/21 03:53:19;;;;;;;26.20;10.05;;;10.30;60.00;;;;;;5049873;28;20750;-71
2023/03/21 03:55:46;;;;;;;29.25;9.52;;;10.40;59.60;;;;;;5050127;28;20370;-70
2023/03/21 03:58:17;;;;;;;21.80;9.10;;;10.60;57.90;;;;;;5053434;28;20382;-71
2023/03/21 04:00:43;;;;;;;20.07;9.03;;;10.60;57.40;;;;;;5053883;28;20389;-71
2023/03/21 04:03:09;;;;;;;19.70;9.15;;;10.60;58.10;;;;;;5053892;28;20393;-72
2023/03/21 04:05:35;;;;;;;25.50;9.18;;;10.60;58.00;;;;;;5054129;28;20523;-71
2023/03/21 04:08:01;;;;;;;28.13;9.73;;;10.50;58.80;;;;;;5054164;28;20406;-71
2023/03/21 04:10:26;;;;;;;24.67;9.07;;;10.50;59.20;;;;;;5053917;28;20385;-71
2023/03/21 04:12:52;;;;;;;25.40;10.23;;;10.50;59.90;;;;;;5056567;28;20397;-70
2023/03/21 04:15:18;;;;;;;18.17;9.00;;;10.50;60.20;;;;;;5059617;28;20373;-72
2023/03/21 04:17:44;;;;;;;24.27;9.38;;;10.50;59.60;;;;;;5057414;28;20446;-72
2023/03/21 04:20:10;;;;;;;26.10;9.65;;;10.50;59.80;;;;;;5053592;28;20405;-71
2023/03/21 04:22:36;;;;;;;22.08;9.30;;;10.40;60.70;;;;;;5053420;28;20385;-71
2023/03/21 04:25:04;;;;;;;25.83;9.63;;;10.40;60.20;;;;;;5053344;28;20885;-71
2023/03/21 04:27:30;;;;;;;25.35;9.45;;;10.60;59.50;;;;;;5053187;28;20469;-71
2023/03/21 04:29:55;;;;;;;25.77;9.70;;;10.50;59.10;;;;;;5053591;28;20728;-71
2023/03/21 04:32:23;;;;;;;15.63;9.00;;;10.50;59.30;;;;;;5052003;28;20392;-71
2023/03/21 04:34:53;;;;;;;21.33;9.10;;;10.60;58.30;;;;;;5053655;28;20401;-72
2023/03/21 04:37:20;;;;;;;19.55;9.43;;;10.60;57.40;;;;;;5053210;28;20378;-71
2023/03/21 04:39:46;;;;;;;22.65;9.70;;;10.50;57.10;;;;;;5053468;28;20393;-72
2023/03/21 04:42:13;;;;;;;25.60;10.10;;;10.50;57.00;;;;;;5053200;28;20390;-72
2023/03/21 04:44:40;;;;;;;22.83;9.15;;;10.50;56.80;;;;;;5052865;28;20374;-72
2023/03/21 04:47:06;;;;;;;20.10;9.45;;;10.50;57.50;;;;;;5053221;28;20476;-72
2023/03/21 04:49:32;;;;;;;25.88;9.38;;;10.70;56.60;;;;;;5052782;28;20902;-72
2023/03/21 04:51:57;;;;;;;20.10;8.97;;;10.70;56.70;;;;;;5052512;28;20381;-72
2023/03/21 04:54:23;;;;;;;20.50;9.30;;;10.70;57.60;;;;;;5052773;28;20373;-72
2023/03/21 04:56:50;;;;;;;18.67;9.50;;;10.60;57.90;;;;;;5058250;28;20373;-73
2023/03/21 04:59:16;;;;;;;20.85;9.30;;;10.70;59.00;;;;;;5054710;28;20429;-72
2023/03/21 05:01:43;;;;;;;24.23;10.23;;;10.60;60.00;;;;;;5051697;28;20416;-71
2023/03/21 05:04:11;;;;;;;23.38;9.82;;;10.50;61.70;;;;;;5052506;28;20765;-70
2023/03/21 05:06:37;;;;;;;23.13;10.30;;;10.40;63.20;;;;;;5052428;28;20420;-72
2023/03/21 05:09:06;;;;;;;22.10;9.90;;;10.40;64.30;;;;;;5051513;28;20416;-71
2023/03/21 05:11:36;;;;;;;27.25;10.50;;;10.40;66.30;;;;;;5043970;28;20455;-72
2023/03/21 05:14:03;;;;;;;26.80;10.13;;;10.50;65.60;;;;;;5051950;28;20394;-71
2023/03/21 05:16:29;;;;;;;21.52;9.15;;;10.60;62.60;;;;;;5051689;28;20897;-73
2023/03/21 05:19:02;;;;;;;23.30;9.95;;;10.60;61.90;;;;;;5052015;28;20399;-73
2023/03/21 05:21:28;;;;;;;26.35;9.80;;;10.40;64.80;;;;;;5051884;28;20883;-72
2023/03/21 05:23:55;;;;;;;25.13;9.77;;;10.20;67.10;;;;;;5052336;28;20401;-71
2023/03/21 05:26:22;;;;;;;21.05;9.73;;;10.20;65.50;;;;;;5052378;28;20920;-72
2023/03/21 05:28:48;;;;;;;20.42;9.02;;;10.20;65.00;;;;;;5052001;28;20775;-72
2023/03/21 05:31:15;;;;;;;23.53;9.83;;;10.20;65.90;;;;;;5051742;28;20950;-74
2023/03/21 05:33:42;;;;;;;22.52;9.80;;;10.20;65.70;;;;;;5051829;28;20447;-70
2023/03/21 05:36:08;;;;;;;25.10;10.00;;;10.20;66.40;;;;;;5051441;28;20966;-73
2023/03/21 05:38:34;;;;;;;20.67;9.77;;;10.20;67.30;;;;;;5032701;28;20391;-74
2023/03/21 05:41:00;;;;;;;23.98;10.30;;;10.20;70.10;;;;;;5031122;28;20902;-72
2023/03/21 05:43:25;;;;;;;26.20;10.30;;;10.10;71.40;;;;;;5031859;28;20498;-72
2023/03/21 05:45:51;;;;;;;23.55;10.20;;;10.10;73.00;;;;;;5031449;28;20387;-73
2023/03/21 05:48:17;;;;;;;29.83;10.50;;;10.10;70.40;;;;;;5031726;28;20919;-71
2023/03/21 05:50:43;;;;;;;23.40;10.20;;;10.10;74.10;;;;;;5030349;28;20422;-71
2023/03/21 05:53:08;;;;;;;20.20;10.07;;;10.10;70.90;;;;;;5032495;28;20387;-71
2023/03/21 05:55:34;;;;;;;20.13;9.60;;;10.30;70.30;;;;;;5030521;28;20394;-71
2023/03/21 05:57:59;;;;;;;20.83;10.17;;;10.30;68.70;;;;;;5032311;28;20395;-73
2023/03/21 06:00:25;;;;;;;23.40;9.80;;;10.40;68.10;;;;;;5031970;28;20411;-71
2023/03/21 06:02:51;;;;;;;26.07;10.40;;;10.50;65.80;;;;;;5031677;28;20844;-72
2023/03/21 06:05:16;;;;;;;24.53;10.10;;;10.50;65.80;;;;;;5031555;28;20394;-73
2023/03/21 06:07:42;;;;;;;20.13;9.20;;;10.60;65.20;;;;;;5031495;28;20879;-72
2023/03/21 06:10:08;;;;;;;24.37;10.60;;;10.60;65.20;;;;;;5031434;28;20376;-71
2023/03/21 06:12:34;;;;;;;24.97;10.23;;;10.70;63.20;;;;;;5031246;28;20406;-73
2023/03/21 06:15:00;;;;;;;20.50;9.87;;;10.70;63.50;;;;;;5030006;28;20391;-72
2023/03/21 06:17:26;;;;;;;24.50;10.20;;;10.70;64.50;;;;;;5031377;28;20449;-72
2023/03/21 06:19:51;;;;;;;24.67;10.90;;;10.70;64.60;;;;;;5044144;22;20403;-74
2023/03/21 06:22:17;;;;;;;23.77;9.55;;;10.60;64.90;;;;;;5032454;28;20763;-74
2023/03/21 06:24:43;;;;;;;20.30;9.80;;;10.70;64.50;;;;;;5032786;28;20568;-76
2023/03/21 06:27:08;;;;;;;23.92;10.40;;;10.60;65.60;;;;;;5032579;28;20406;-74
2023/03/21 06:29:34;;;;;;;23.88;10.75;;;10.70;67.00;;;;;;5032014;28;20833;-74
2023/03/21 06:32:00;;;;;;;26.63;10.07;;;10.70;66.00;;;;;;5031588;28;20383;-74
2023/03/21 06:34:25;;;;;;;23.88;9.77;;;10.70;64.00;;;;;;5031636;28;20380;-74
2023/03/21 06:36:53;;;;;;;24.27;9.55;;;10.70;65.40;;;;;;5031915;28;20444;-74
2023/03/21 06:39:19;;;;;;;17.05;8.90;;;10.70;65.90;;;;;;5032394;28;20391;-74
2023/03/21 06:41:45;;;;;;;22.77;9.80;;;10.80;64.60;;;;;;5031967;28;20853;-75
2023/03/21 06:44:10;;;;;;;20.17;9.37;;;11.00;63.20;;;;;;5032772;28;20387;-74
2023/03/21 06:46:36;;;;;;;29.10;9.30;;;11.00;61.40;;;;;;5031525;28;20387;-75
2023/03/21 06:49:02;;;;;;;20.52;9.77;;;11.00;63.20;;;;;;5033919;28;20470;-75
2023/03/21 06:51:28;;;;;;;21.00;9.18;;;10.90;63.00;;;;;;5038397;28;20383;-76
2023/03/21 06:53:54;;;;;;;21.80;9.60;;;11.10;62.20;;;;;;5046641;28;20383;-75
2023/03/21 06:56:19;;;;;;;23.33;9.40;;;11.10;63.00;;;;;;5045775;28;20390;-75
2023/03/21 06:58:45;;;;;;;23.10;10.40;;;10.90;64.90;;;;;;5034508;28;20383;-74
2023/03/21 07:01:11;;;;;;;31.23;10.80;;;11.00;63.80;;;;;;5032454;28;20395;-74
2023/03/21 07:03:38;;;;;;;22.90;9.60;;;11.20;61.60;;;;;;5032961;28;20813;-74
2023/03/21 07:06:12;;;;;;;26.58;9.60;;;11.20;62.60;;;;;;5033060;28;20419;-75
2023/03/21 07:08:39;;;;;;;21.42;9.60;;;11.10;63.40;;;;;;5033482;28;20399;-75
2023/03/21 07:11:05;;;;;;;27.17;9.85;;;11.30;61.10;;;;;;5038437;28;20387;-74
2023/03/21 07:13:31;;;;;;;24.50;9.67;;;11.30;59.40;;;;;;5047436;28;20398;-74
2023/03/21 07:15:57;;;;;;;22.00;9.80;;;11.40;58.60;;;;;;5035249;28;20387;-74
2023/03/21 07:18:23;;;;;;;23.30;9.80;;;11.30;59.60;;;;;;5032123;28;20425;-74
2023/03/21 07:20:49;;;;;;;21.88;10.05;;;11.30;60.70;;;;;;5030484;28;20856;-74
2023/03/21 07:23:20;;;;;;;25.73;9.32;;;11.20;62.40;;;;;;5031681;28;20441;-74
2023/03/21 07:25:49;;;;;;;24.85;9.60;;;11.30;60.80;;;;;;5031769;28;20375;-74
2023/03/21 07:28:16;;;;;;;29.98;9.98;;;11.30;60.10;;;;;;5030943;28;20402;-74
2023/03/21 07:30:42;;;;;;;24.03;9.47;;;11.20;60.00;;;;;;5047162;28;20855;-74
2023/03/21 07:33:08;;;;;;;23.38;9.50;;;11.30;60.80;;;;;;5035218;28;20473;-74
2023/03/21 07:35:35;;;;;;;24.90;9.77;;;11.30;60.90;;;;;;5036279;28;20410;-74
2023/03/21 07:38:02;;;;;;;23.77;9.98;;;11.30;61.50;;;;;;5034299;28;20412;-75
2023/03/21 07:40:27;;;;;;;20.95;9.80;;;11.50;59.80;;;;;;5035569;28;20390;-74
2023/03/21 07:42:53;;;;;;;26.30;9.60;;;11.40;61.20;;;;;;5034323;28;20398;-74
2023/03/21 07:45:24;;;;;;;21.90;9.55;;;11.60;59.80;;;;;;5033987;28;20394;-74
2023/03/21 07:47:49;;;;;;;29.27;10.50;;;11.80;59.60;;;;;;5034089;28;20411;-74
2023/03/21 07:50:15;;;;;;;25.48;10.50;;;11.90;60.00;;;;;;5033924;28;20517;-74
2023/03/21 07:52:41;;;;;;;22.60;9.30;;;11.90;60.30;;;;;;5035043;28;20379;-74
2023/03/21 07:55:07;;;;;;;19.05;9.77;;;12.10;58.80;;;;;;5035466;28;20541;-75
2023/03/21 07:57:33;;;;;;;21.08;9.52;;;12.00;60.70;;;;;;5035086;28;20379;-74
2023/03/21 07:59:58;;;;;;;36.50;11.40;;;12.00;60.40;;;;;;5034443;28;20868;-75
2023/03/21 08:02:24;;;;;;;29.17;9.07;;;11.80;61.70;;;;;;5034331;28;20386;-74
2023/03/21 08:04:50;;;;;;;19.35;9.02;;;12.10;58.80;;;;;;5034965;28;20383;-75
2023/03/21 08:07:16;;;;;;;29.00;10.13;;;11.90;61.20;;;;;;5035998;28;20380;-75
2023/03/21 08:09:44;;;;;;;22.40;9.80;;;11.70;66.60;;;;;;5035013;28;20444;-75
2023/03/21 08:12:10;;;;;;;22.08;10.32;;;11.90;64.60;;;;;;5035879;28;20470;-74
2023/03/21 08:14:36;;;;;;;27.23;9.90;;;11.60;68.30;;;;;;5035410;28;20391;-74
2023/03/21 08:17:03;;;;;;;22.45;10.82;;;11.80;69.60;;;;;;5035970;28;20382;-74
2023/03/21 08:19:29;;;;;;;27.80;11.40;;;11.70;71.30;;;;;;5035323;28;20387;-73
2023/03/21 08:21:58;;;;;;;26.23;10.85;;;11.70;71.90;;;;;;5037152;28;20426;-74
2023/03/21 08:24:24;;;;;;;24.95;10.95;;;11.50;75.30;;;;;;5040433;28;20411;-74
2023/03/21 08:26:50;;;;;;;20.10;9.60;;;11.70;73.90;;;;;;5046345;28;20429;-75
2023/03/21 08:29:16;;;;;;;19.53;9.53;;;11.80;72.20;;;;;;5046420;28;20411;-74
2023/03/21 08:31:41;;;;;;;16.30;8.30;;;11.70;72.50;;;;;;5042420;28;20388;-73
2023/03/21 08:34:07;;;;;;;21.50;9.03;;;11.80;73.00;;;;;;5049769;28;20467;-74
2023/03/21 08:36:35;;;;;;;19.33;9.30;;;11.70;76.70;;;;;;5051394;28;20391;-75
2023/03/21 08:39:04;;;;;;;21.13;9.75;;;11.70;77.60;;;;;;5052338;28;20803;-74
2023/03/21 08:41:33;;;;;;;20.05;9.50;;;11.90;75.30;;;;;;5052807;28;20442;-75
2023/03/21 08:43:59;;;;;;;25.20;10.27;;;12.10;73.50;;;;;;5043200;28;20843;-73
2023/03/21 08:46:25;;;;;;;25.40;11.00;;;11.80;78.30;;;;;;5034715;28;20383;-75
2023/03/21 08:48:51;;;;;;;21.52;10.80;;;11.90;79.20;;;;;;5034070;28;20403;-75
2023/03/21 08:51:17;;;;;;;26.17;10.85;;;11.70;79.80;;;;;;5034205;28;20390;-75
2023/03/21 08:53:42;;;;;;;27.73;11.40;;;11.80;81.60;;;;;;5033896;28;20375;-75
2023/03/21 08:56:09;;;;;;;25.57;11.80;;;11.80;81.00;;;;;;5034387;28;20391;-75
2023/03/21 08:58:35;;;;;;;26.20;11.95;;;11.90;79.60;;;;;;5033813;28;20926;-74
2023/03/21 09:01:02;;;;;;;23.67;11.10;;;12.10;77.40;;;;;;5033257;28;20864;-74
2023/03/21 09:03:29;;;;;;;22.88;12.23;;;12.10;74.60;;;;;;5033369;28;20812;-74
2023/03/21 09:05:55;;;;;;;29.00;14.23;;;11.70;83.40;;;;;;5033701;28;20494;-74
2023/03/21 09:08:22;;;;;;;29.05;12.88;;;11.80;83.20;;;;;;5033399;28;20424;-75
2023/03/21 09:10:51;;;;;;;29.43;12.93;;;11.90;82.10;;;;;;5033295;28;20472;-75
2023/03/21 09:13:17;;;;;;;32.65;14.20;;;12.00;83.10;;;;;;5033087;28;20387;-75
2023/03/21 09:15:44;;;;;;;25.37;12.40;;;11.60;87.00;;;;;;5033277;28;20390;-74
2023/03/21 09:18:14;;;;;;;26.70;13.32;;;12.00;82.90;;;;;;5033064;28;20397;-75
2023/03/21 09:20:41;;;;;;;29.92;13.98;;;12.20;77.80;;;;;;5031446;28;20399;-73
2023/03/21 09:23:09;;;;;;;29.13;12.68;;;12.20;79.00;;;;;;5032777;28;20395;-73
2023/03/21 09:25:36;;;;;;;32.37;13.13;;;12.20;78.60;;;;;;5032630;28;20397;-73
2023/03/21 09:28:04;;;;;;;28.63;12.40;;;12.00;78.30;;;;;;5032815;28;20453;-73
2023/03/21 09:30:34;;;;;;;34.65;13.20;;;12.30;77.90;;;;;;5032366;28;20799;-74
2023/03/21 09:33:05;;;;;;;24.00;11.75;;;12.20;81.30;;;;;;5032282;28;20379;-73
2023/03/21 09:35:30;;;;;;;27.63;12.40;;;12.60;72.70;;;;;;5033516;28;20387;-74
2023/03/21 09:37:58;;;;;;;26.70;12.93;;;12.50;74.50;;;;;;5033914;28;20497;-74
2023/03/21 09:40:52;;;;;;;27.70;13.40;;;12.60;74.60;;;;;;5033501;28;20391;-74
2023/03/21 09:43:50;;;;;;;24.25;11.48;;;12.40;73.60;;;;;;5055038;28;20371;-74
2023/03/21 09:46:24;;;;;;;23.50;11.10;;;12.30;76.40;;;;;;5039001;28;20379;-74
2023/03/21 09:48:53;;;;;;;25.67;10.52;;;12.90;68.10;;;;;;5033020;28;20415;-75
2023/03/21 09:51:20;;;;;;;23.52;10.15;;;13.10;63.30;;;;;;5032345;28;20383;-74
2023/03/21 09:53:50;;;;;;;27.27;11.77;;;13.10;63.30;;;;;;5031907;28;20387;-74
2023/03/21 09:56:16;;;;;;;23.40;9.48;;;12.70;68.50;;;;;;5032227;28;20383;-74
2023/03/21 09:58:51;;;;;;;17.20;9.20;;;12.90;63.10;;;;;;5032687;28;20822;-74
2023/03/21 10:01:40;;;;;;;24.08;10.85;;;12.90;63.30;;;;;;5032596;28;20924;-74
2023/03/21 10:04:10;;;;;;;20.20;10.35;;;12.40;69.60;;;;;;5032374;28;20478;-74
2023/03/21 10:06:39;;;;;;;24.20;11.10;;;12.50;68.40;;;;;;5032517;28;20854;-74
2023/03/21 10:09:23;;;;;;;21.23;9.57;;;12.50;68.50;;;;;;5031833;28;20421;-74
2023/03/21 10:11:58;;;;;;;18.70;9.98;;;12.90;63.40;;;;;;5031743;28;20383;-74
2023/03/21 10:14:43;;;;;;;31.13;11.30;;;13.00;62.30;;;;;;5031673;28;20375;-74
2023/03/21 10:17:27;;;;;;;19.95;10.40;;;12.70;68.30;;;;;;5030787;28;20386;-74
2023/03/21 10:20:15;;;;;;;22.30;10.27;;;12.40;68.30;;;;;;5030749;28;20387;-74
2023/03/21 10:22:43;;;;;;;23.23;10.80;;;12.40;70.70;;;;;;5031819;28;20394;-74
2023/03/21 10:25:15;;;;;;;28.85;11.00;;;12.60;67.80;;;;;;5032312;28;20387;-74
2023/03/21 10:27:40;;;;;;;21.10;10.07;;;12.60;68.60;;;;;;5030677;28;20390;-74
2023/03/21 10:30:18;;;;;;;18.88;10.40;;;12.30;72.60;;;;;;5032087;28;20402;-74
2023/03/21 10:32:43;;;;;;;19.65;10.40;;;12.50;70.00;;;;;;5031892;28;20379;-75
2023/03/21 10:35:13;;;;;;;18.63;10.77;;;12.40;71.20;;;;;;5031869;28;20390;-74
2023/03/21 10:37:39;;;;;;;23.08;11.35;;;12.10;74.30;;;;;;5031711;28;20387;-74
2023/03/21 10:40:08;;;;;;;19.92;10.23;;;12.40;71.00;;;;;;5032026;28;20395;-74
2023/03/21 10:42:35;;;;;;;19.73;9.40;;;12.90;65.30;;;;;;5031346;28;20384;-74
2023/03/21 10:45:01;;;;;;;18.73;8.93;;;13.20;61.60;;;;;;5031451;28;20387;-74
2023/03/21 10:47:32;;;;;;;18.40;9.27;;;13.10;62.00;;;;;;5031610;28;20383;-74
2023/03/21 10:50:04;;;;;;;20.10;9.93;;;13.30;58.30;;;;;;5031648;28;20387;-74
2023/03/21 10:52:32;;;;;;;21.00;10.30;;;13.10;62.10;;;;;;5031303;28;20744;-74
2023/03/21 10:55:27;;;;;;;17.73;9.48;;;13.20;62.50;;;;;;5030175;28;20375;-74
2023/03/21 10:58:00;;;;;;;17.88;10.07;;;12.80;67.50;;;;;;5030140;28;20395;-74
2023/03/21 11:00:35;;;;;;;17.90;9.60;;;12.60;68.30;;;;;;5031583;28;20880;-74
2023/03/21 11:03:02;;;;;;;22.27;9.87;;;12.70;65.90;;;;;;5031539;28;20397;-75
2023/03/21 11:05:39;;;;;;;24.73;10.50;;;13.20;62.40;;;;;;5031506;28;20927;-74
2023/03/21 11:08:14;;;;;;;25.35;9.63;;;13.40;62.60;;;;;;5032797;28;20911;-74
2023/03/21 11:10:58;;;;;;;24.00;10.20;;;13.30;61.70;;;;;;5032151;28;20498;-74
2023/03/21 11:13:36;;;;;;;16.95;9.00;;;13.20;63.10;;;;;;5032734;28;20402;-74
2023/03/21 11:16:10;;;;;;;17.92;10.15;;;13.70;59.70;;;;;;5032873;28;20383;-74
2023/03/21 11:18:42;;;;;;;19.45;9.60;;;13.90;54.90;;;;;;5033367;28;20437;-74
2023/03/21 11:21:11;;;;;;;18.80;9.25;;;14.10;56.50;;;;;;5037208;28;20407;-74
2023/03/21 11:23:46;;;;;;;20.55;10.60;;;13.20;59.70;;;;;;5049563;28;20403;-73
2023/03/21 11:26:25;;;;;;;20.35;9.93;;;13.10;62.50;;;;;;5043107;28;20383;-74
2023/03/21 11:28:50;;;;;;;15.32;9.23;;;13.30;60.20;;;;;;5048559;28;20398;-74
2023/03/21 11:31:16;;;;;;;20.15;9.20;;;13.80;56.30;;;;;;5050797;28;20386;-74
2023/03/21 11:33:54;;;;;;;16.83;9.10;;;13.60;55.00;;;;;;5035771;28;20379;-74
2023/03/21 11:36:19;;;;;;;19.17;9.23;;;13.80;55.10;;;;;;5032710;28;20383;-75
2023/03/21 11:38:50;;;;;;;17.60;8.88;;;13.80;56.40;;;;;;5048278;28;20398;-75
2023/03/21 11:41:27;;;;;;;16.33;8.40;;;13.70;56.40;;;;;;5032807;28;20486;-75
2023/03/21 11:43:53;;;;;;;17.90;8.30;;;13.70;56.40;;;;;;5038950;28;20399;-75
2023/03/21 11:46:30;;;;;;;13.52;8.38;;;13.90;49.90;;;;;;5043658;28;20407;-75
2023/03/21 11:48:57;;;;;;;16.93;8.20;;;14.00;46.80;;;;;;5045372;28;20453;-74
2023/03/21 11:51:41;;;;;;;13.38;8.30;;;13.30;53.40;;;;;;5044130;28;20772;-75
2023/03/21 11:54:55;;;;;;;18.95;8.00;;;13.20;54.30;;;;;;5043110;28;20383;-75
2023/03/21 11:57:59;;;;;;;17.77;8.75;;;13.10;58.70;;;;;;5041135;28;20442;-75
2023/03/21 12:01:05;;;;;;;22.10;9.65;;;13.20;56.70;;;;;;5042734;28;20482;-74
2023/03/21 12:03:47;;;;;;;15.30;7.13;;;13.10;54.60;;;;;;5031467;28;20938;-74
2023/03/21 12:06:29;;;;;;;12.40;7.60;;;13.20;52.20;;;;;;5033808;28;20760;-75
2023/03/21 12:09:15;;;;;;;13.40;7.50;;;13.20;53.90;;;;;;5037192;28;20407;-75
2023/03/21 12:12:12;;;;;;;11.82;7.18;;;13.40;51.60;;;;;;5044048;28;20387;-75
2023/03/21 12:14:54;;;;;;;14.60;7.22;;;13.30;52.10;;;;;;5049690;28;20383;-74
2023/03/21 12:17:44;;;;;;;17.05;7.05;;;13.20;52.90;;;;;;5048559;28;20379;-73
2023/03/21 12:20:25;;;;;;;16.13;7.30;;;13.30;52.80;;;;;;5051079;28;20411;-74
2023/03/21 12:23:22;;;;;;;17.15;8.25;;;13.20;53.20;;;;;;5044141;28;20490;-75
2023/03/21 12:26:17;;;;;;;15.00;7.68;;;13.00;55.40;;;;;;5055273;28;20387;-75
2023/03/21 12:29:14;;;;;;;14.18;7.85;;;12.70;59.70;;;;;;5042849;28;20403;-75
2023/03/21 12:32:09;;;;;;;15.60;7.95;;;12.80;61.90;;;;;;5043794;28;20375;-74
2023/03/21 12:34:46;;;;;;;16.55;7.05;;;13.00;61.20;;;;;;5044191;28;20447;-76
2023/03/21 12:37:24;;;;;;;16.73;6.70;;;13.10;58.10;;;;;;5040918;28;20383;-74
2023/03/21 12:39:50;;;;;;;19.10;8.23;;;13.00;55.20;;;;;;5058117;28;20402;-73
2023/03/21 12:42:40;;;;;;;20.95;7.70;;;13.10;57.60;;;;;;5041250;28;20457;-74
2023/03/21 12:45:20;;;;;;;12.40;7.15;;;13.20;54.70;;;;;;5046649;28;20451;-75
2023/03/21 12:47:55;;;;;;;14.20;7.40;;;12.90;56.50;;;;;;5046424;28;20423;-74
2023/03/21 12:50:35;;;;;;;14.32;7.28;;;13.00;57.90;;;;;;5047086;28;20406;-75
2023/03/21 12:53:11;;;;;;;13.88;7.70;;;13.20;55.40;;;;;;5042204;28;20384;-75